Atyray, Kazakhstan

6:37 PM AQTT on July 30, 2014 (GMT +0500)
Atyrau (UATG) Elev -72 ft | 47.12 °N, 51.83 °E | Change Station

Current weather conditions updated 7 minutes ago

Scattered Clouds
Scattered Clouds
82 °F
Feels Like 82 °F
N
16
Wind Variable Wind from SSW

Tomorrow is forecast to be Warmer than today.

Today
High -- | Low -- °F
--% Chance of Precip.
Yesterday
High -- | Low -- °F
Precip. -- in
6:08 AM 9:08 PM
Waxing Crescent, 11% visible
Pressure 30.04 in
Visibility 6.2 miles
Clouds Few 5000 ft
Scattered Clouds 13000 ft
Dew Point 52 °F
Humidity 35%
Rainfall 0.00 in
Snow Depth Not available.
UV 2 out of 12
Pollen Not available.
Air Quality Not available.
Flu Activity Not available.
METAR UATG 301330Z 20007MPS 9999 FEW050CB SCT130 28/11 Q1017 R14/CLRD70 NOSIG RMK QFE764/1019

More Conditions Fewer Conditions

Pressure 30.04 in
Visibility 6.2 miles
Clouds Few 5000 ft
Scattered Clouds 13000 ft
Dew Point 52 °F
Humidity 35%
Rainfall 0.00 in
Snow Depth Not available.
UV 2 out of 12
Pollen Not available.
Air Quality Not available.
Flu Activity Not available.
METAR UATG 301330Z 20007MPS 9999 FEW050CB SCT130 28/11 Q1017 R14/CLRD70 NOSIG RMK QFE764/1019

More Conditions Fewer Conditions

10-Day Weather Forecast

Almanac

Astronomy

Jul. 30, 2014 Rise Set
Actual Time 6:08 AM AQTT 9:08 PM AQTT
Civil Twilight 5:32 AM AQTT 9:44 PM AQTT
Nautical Twilight 4:46 AM AQTT 10:30 PM AQTT
Astronomical Twilight 3:49 AM AQTT 11:25 PM AQTT
Moon 9:34 AM AQTT 10:21 PM AQTT
Length of Visible Light 16h 11m
Length of Day
14h 59m
Tomorrow will be 2m 34s shorter.
Waxing Crescent, 11% of the Moon is Illuminated
Today
Waxing Crescent
Aug 3
First Quarter
Aug 10
Full
Aug 17
Last Quarter
Aug 25
New

Yesterday's Extremes

Country Highs Country Lows

Community

WunderPhotos

Upload Photos

1,739,079 photos uploaded!

Nearby

Snow Depth

Not available.

Earthquake Activity

City Distance Mag. Time & Date
No recent earthquake activity has been reported nearby.
Minimum magnitude displayed is 2.5.

Coastal Water Temperatures

Place Temperature
No Stations Reporting

Nearby Weather Stations

There are no personal weather stations in this area.